EKYT/AAL METAR and TAF weather

Enter ICAO airport designator
Station Type Date Time Source
EKYT METAR 2024/07/23 16:50 UTC NOAA

EKYT 231650Z AUTO 25004KT 9999 FEW094/// SCT100/// BKN160/// 18/16 Q1012 RERA


Station Type Date Time Source
EKYT Decoded METAR 2024/07/23 16:50 UTC NOAA

Aalborg, Denmark (EKYT) 57-06N 009-51E 13M
Jul 23, 2024 - 12:50 PM EDT / 2024.07.23 1650 UTC
Wind: from the WSW (250 degrees) at 5 MPH (4 KT):0
Visibility: greater than 7 mile(s):0
Sky conditions: mostly cloudy
Temperature: 64 F (18 C)
Dew Point: 60 F (16 C)
Relative Humidity: 88%
Pressure (altimeter): 29.88 in. Hg (1012 hPa)
ob: EKYT 231650Z AUTO 25004KT 9999 FEW094/// SCT100/// BKN160/// 18/16 Q1012 RERA
cycle: 17

Station Type Date Time Source
EKYT TAF 2024/07/23 15:36 UTC NOAA